Share

Aomori Airport, Japan

Aomori (RJSA) Elev 659 ft | 40.73 °N, 140.69 °E | Change Station

Current weather conditions updated 19 minutes ago

Light Rain Showers
Light Showers Rain
45 °F
Feels Like 42 °F
N
5
Wind Variable Wind from South
Sunrise 4:50 AM
Sunset 6:22 PM
Moon Waning Gibbous

Tomorrow is forecast to be nearly the same temperature as today.

Pressure 29.89 in
Visibility 6.2 miles
Clouds Few 3000 ft
Scattered Clouds 4000 ft
Mostly Cloudy 7000 ft
Windchill 42 °F
Dew Point 37 °F
Humidity 76%
Rainfall 0.00 in
Snow Depth Not available.
UV 0 out of 16
Pollen Not available.
Air Quality Not available.
Flu Activity Not available.
METAR RJSA 210800Z 18004KT 9999 -SHRA FEW030 SCT040 BKN070 07/03 Q1012

More Conditions Fewer Conditions

Pressure 29.89 in
Visibility 6.2 miles
Clouds Few 3000 ft
Scattered Clouds 4000 ft
Mostly Cloudy 7000 ft
Windchill 42 °F
Dew Point 37 °F
Humidity 76%
Rainfall 0.00 in
Snow Depth Not available.
UV 0 out of 16
Pollen Not available.
Air Quality Not available.
Flu Activity Not available.
METAR RJSA 210800Z 18004KT 9999 -SHRA FEW030 SCT040 BKN070 07/03 Q1012

More Conditions Fewer Conditions

10-Day Weather Forecast

Almanac

Astronomy

Apr. 21, 2014 Rise Set
Actual Time 4:50 AM JST 6:22 PM JST
Civil Twilight 4:21 AM JST 6:51 PM JST
Nautical Twilight 3:46 AM JST 7:25 PM JST
Astronomical Twilight 3:10 AM JST 8:02 PM JST
Moon No Moon Rise 9:33 AM JST
Length of Visible Light 14h 29m
Length of Day
13h 31m
Tomorrow will be 2m 30s longer.
Waning Gibbous, 61% of the Moon is Illuminated
Today
Waning Gibbous
Apr 22
Last Quarter
Apr 29
New
May 6
First Quarter
May 14
Full

Yesterday's Extremes

Country Highs Country Lows

Community

  • Snowy Robin
    Snowy Robin
  • Sun Pillar and Geese
    Sun Pillar and Geese
  • Showers on the Way
    Showers on the Way
  • Easter Morning Fog
    Easter Morning Fog
  • Easter Dance
    Easter Dance

WunderPhotos

Upload Photos

1,703,572 photos uploaded!

WunderBlogs® & News

Nearby

Snow Depth

Not available.

Coastal Water Temperatures

Place Temperature
No Stations Reporting

Earthquake Activity

City Distance Mag. Time & Date
No recent earthquake activity has been reported nearby.
Minimum magnitude displayed is 2.5.

Nearby Weather Stations

There are no personal weather stations in this area.

What do you think?

We're not finished. Please let us know what you like, what you don't like, and what you are still missing.